sensor_id;sensor_type;location;lat;lon;timestamp;temperature;humidity
43561;DHT22;32305;46.410;17.394;2023-04-24T00:01:59;23.10;42.80
43561;DHT22;32305;46.410;17.394;2023-04-24T00:04:26;23.10;42.80
43561;DHT22;32305;46.410;17.394;2023-04-24T00:06:53;23.10;42.80
43561;DHT22;32305;46.410;17.394;2023-04-24T00:09:24;23.10;42.80
43561;DHT22;32305;46.410;17.394;2023-04-24T00:11:51;23.10;42.80
43561;DHT22;32305;46.410;17.394;2023-04-24T00:14:18;23.10;42.80
43561;DHT22;32305;46.410;17.394;2023-04-24T00:16:45;23.10;42.90
43561;DHT22;32305;46.410;17.394;2023-04-24T00:19:12;23.10;42.90
43561;DHT22;32305;46.410;17.394;2023-04-24T00:21:40;23.10;42.90
43561;DHT22;32305;46.410;17.394;2023-04-24T00:24:08;23.10;42.90
43561;DHT22;32305;46.410;17.394;2023-04-24T00:26:35;23.10;43.00
43561;DHT22;32305;46.410;17.394;2023-04-24T00:29:03;23.10;43.00
43561;DHT22;32305;46.410;17.394;2023-04-24T00:31:30;23.10;43.00
43561;DHT22;32305;46.410;17.394;2023-04-24T00:33:57;23.10;43.00
43561;DHT22;32305;46.410;17.394;2023-04-24T00:36:25;23.00;43.00
43561;DHT22;32305;46.410;17.394;2023-04-24T00:38:52;23.00;43.00
43561;DHT22;32305;46.410;17.394;2023-04-24T00:41:19;23.00;43.00
43561;DHT22;32305;46.410;17.394;2023-04-24T00:43:47;23.00;43.00
43561;DHT22;32305;46.410;17.394;2023-04-24T00:46:16;23.00;43.00
43561;DHT22;32305;46.410;17.394;2023-04-24T00:48:43;23.10;43.00
43561;DHT22;32305;46.410;17.394;2023-04-24T00:51:10;23.10;43.00
43561;DHT22;32305;46.410;17.394;2023-04-24T00:53:38;23.10;43.00
43561;DHT22;32305;46.410;17.394;2023-04-24T00:56:05;23.10;42.90
43561;DHT22;32305;46.410;17.394;2023-04-24T00:58:32;23.10;42.90
43561;DHT22;32305;46.410;17.394;2023-04-24T01:01:00;23.10;42.90
43561;DHT22;32305;46.410;17.394;2023-04-24T01:03:29;23.10;42.90
43561;DHT22;32305;46.410;17.394;2023-04-24T01:05:59;23.10;42.90
43561;DHT22;32305;46.410;17.394;2023-04-24T01:08:28;23.10;42.80
43561;DHT22;32305;46.410;17.394;2023-04-24T01:10:57;23.10;42.80
43561;DHT22;32305;46.410;17.394;2023-04-24T01:13:24;23.10;42.80
43561;DHT22;32305;46.410;17.394;2023-04-24T01:15:51;23.10;42.90
43561;DHT22;32305;46.410;17.394;2023-04-24T01:18:19;23.10;42.80
43561;DHT22;32305;46.410;17.394;2023-04-24T01:20:49;23.10;42.80
43561;DHT22;32305;46.410;17.394;2023-04-24T01:23:17;23.10;42.80
43561;DHT22;32305;46.410;17.394;2023-04-24T01:25:46;23.00;42.80
43561;DHT22;32305;46.410;17.394;2023-04-24T01:28:14;23.10;42.80
43561;DHT22;32305;46.410;17.394;2023-04-24T01:30:41;23.10;42.90
43561;DHT22;32305;46.410;17.394;2023-04-24T01:33:08;23.00;42.80
43561;DHT22;32305;46.410;17.394;2023-04-24T01:35:37;23.00;42.80
43561;DHT22;32305;46.410;17.394;2023-04-24T01:38:04;23.00;42.80
43561;DHT22;32305;46.410;17.394;2023-04-24T01:40:32;23.00;42.80
43561;DHT22;32305;46.410;17.394;2023-04-24T01:43:00;23.00;42.80
43561;DHT22;32305;46.410;17.394;2023-04-24T01:45:27;23.00;42.80
43561;DHT22;32305;46.410;17.394;2023-04-24T01:47:54;23.00;42.80
43561;DHT22;32305;46.410;17.394;2023-04-24T01:50:21;23.00;42.90
43561;DHT22;32305;46.410;17.394;2023-04-24T01:52:48;23.00;43.00
43561;DHT22;32305;46.410;17.394;2023-04-24T01:55:17;23.00;43.00
43561;DHT22;32305;46.410;17.394;2023-04-24T01:57:44;23.00;43.00
43561;DHT22;32305;46.410;17.394;2023-04-24T02:00:11;23.00;43.00
43561;DHT22;32305;46.410;17.394;2023-04-24T02:02:42;23.00;43.10
43561;DHT22;32305;46.410;17.394;2023-04-24T02:05:13;22.90;43.00
43561;DHT22;32305;46.410;17.394;2023-04-24T02:07:40;23.00;43.10
43561;DHT22;32305;46.410;17.394;2023-04-24T02:10:07;22.90;43.00
43561;DHT22;32305;46.410;17.394;2023-04-24T02:12:34;23.00;43.10
43561;DHT22;32305;46.410;17.394;2023-04-24T02:15:02;22.90;43.00
43561;DHT22;32305;46.410;17.394;2023-04-24T02:17:29;22.90;43.00
43561;DHT22;32305;46.410;17.394;2023-04-24T02:19:57;22.90;43.60
43561;DHT22;32305;46.410;17.394;2023-04-24T02:22:24;22.90;43.00
43561;DHT22;32305;46.410;17.394;2023-04-24T02:24:51;22.90;42.90
43561;DHT22;32305;46.410;17.394;2023-04-24T02:27:18;23.00;43.00
43561;DHT22;32305;46.410;17.394;2023-04-24T02:29:46;23.00;42.90
43561;DHT22;32305;46.410;17.394;2023-04-24T02:32:13;23.00;42.90
43561;DHT22;32305;46.410;17.394;2023-04-24T02:34:42;23.00;42.90
43561;DHT22;32305;46.410;17.394;2023-04-24T02:37:09;23.00;42.80
43561;DHT22;32305;46.410;17.394;2023-04-24T02:39:36;23.00;42.80
43561;DHT22;32305;46.410;17.394;2023-04-24T02:42:04;23.00;42.80
43561;DHT22;32305;46.410;17.394;2023-04-24T02:44:31;23.00;42.80
43561;DHT22;32305;46.410;17.394;2023-04-24T02:46:58;23.00;42.80
43561;DHT22;32305;46.410;17.394;2023-04-24T02:49:25;23.00;42.80
43561;DHT22;32305;46.410;17.394;2023-04-24T02:51:52;23.00;42.80
43561;DHT22;32305;46.410;17.394;2023-04-24T02:54:19;23.00;42.80
43561;DHT22;32305;46.410;17.394;2023-04-24T02:56:47;22.90;42.80
43561;DHT22;32305;46.410;17.394;2023-04-24T02:59:14;22.90;42.80
43561;DHT22;32305;46.410;17.394;2023-04-24T03:01:41;22.90;42.80
43561;DHT22;32305;46.410;17.394;2023-04-24T03:04:09;22.90;42.80
43561;DHT22;32305;46.410;17.394;2023-04-24T03:06:37;22.90;42.80
43561;DHT22;32305;46.410;17.394;2023-04-24T03:09:05;22.90;42.80
43561;DHT22;32305;46.410;17.394;2023-04-24T03:11:32;22.90;42.80
43561;DHT22;32305;46.410;17.394;2023-04-24T03:14:00;22.90;42.80
43561;DHT22;32305;46.410;17.394;2023-04-24T03:16:27;22.90;42.80
43561;DHT22;32305;46.410;17.394;2023-04-24T03:18:54;22.90;42.80
43561;DHT22;32305;46.410;17.394;2023-04-24T03:21:22;22.90;42.80
43561;DHT22;32305;46.410;17.394;2023-04-24T03:23:49;22.90;42.80
43561;DHT22;32305;46.410;17.394;2023-04-24T03:26:16;22.90;42.80
43561;DHT22;32305;46.410;17.394;2023-04-24T03:28:43;22.90;42.80
43561;DHT22;32305;46.410;17.394;2023-04-24T03:31:10;22.90;42.80
43561;DHT22;32305;46.410;17.394;2023-04-24T03:33:37;22.90;42.80
43561;DHT22;32305;46.410;17.394;2023-04-24T03:36:05;22.90;42.80
43561;DHT22;32305;46.410;17.394;2023-04-24T03:38:32;22.90;42.80
43561;DHT22;32305;46.410;17.394;2023-04-24T03:40:59;22.90;42.90
43561;DHT22;32305;46.410;17.394;2023-04-24T03:43:26;22.90;42.90
43561;DHT22;32305;46.410;17.394;2023-04-24T03:45:54;22.90;43.00
43561;DHT22;32305;46.410;17.394;2023-04-24T03:48:21;22.90;43.00
43561;DHT22;32305;46.410;17.394;2023-04-24T03:50:48;22.90;43.00
43561;DHT22;32305;46.410;17.394;2023-04-24T03:53:15;22.90;43.00
43561;DHT22;32305;46.410;17.394;2023-04-24T03:55:42;22.90;43.00
43561;DHT22;32305;46.410;17.394;2023-04-24T03:58:09;22.90;43.00
43561;DHT22;32305;46.410;17.394;2023-04-24T04:00:37;22.90;43.00
43561;DHT22;32305;46.410;17.394;2023-04-24T04:03:07;22.90;43.00
43561;DHT22;32305;46.410;17.394;2023-04-24T04:05:34;22.90;42.90
43561;DHT22;32305;46.410;17.394;2023-04-24T04:08:01;22.90;43.40
43561;DHT22;32305;46.410;17.394;2023-04-24T04:10:28;22.90;42.80
43561;DHT22;32305;46.410;17.394;2023-04-24T04:12:55;22.90;42.90
43561;DHT22;32305;46.410;17.394;2023-04-24T04:15:23;22.90;42.80
43561;DHT22;32305;46.410;17.394;2023-04-24T04:17:50;22.90;42.80
43561;DHT22;32305;46.410;17.394;2023-04-24T04:20:17;22.90;42.70
43561;DHT22;32305;46.410;17.394;2023-04-24T04:22:45;23.00;42.90
43561;DHT22;32305;46.410;17.394;2023-04-24T04:25:12;23.00;42.70
43561;DHT22;32305;46.410;17.394;2023-04-24T04:27:40;23.00;42.70
43561;DHT22;32305;46.410;17.394;2023-04-24T04:30:08;23.00;42.70
43561;DHT22;32305;46.410;17.394;2023-04-24T04:32:36;23.00;42.60
43561;DHT22;32305;46.410;17.394;2023-04-24T04:35:04;23.00;42.60
43561;DHT22;32305;46.410;17.394;2023-04-24T04:37:33;23.00;42.60
43561;DHT22;32305;46.410;17.394;2023-04-24T04:40:00;23.00;42.60
43561;DHT22;32305;46.410;17.394;2023-04-24T04:42:27;23.00;42.60
43561;DHT22;32305;46.410;17.394;2023-04-24T04:44:55;23.00;42.50
43561;DHT22;32305;46.410;17.394;2023-04-24T04:47:24;23.00;42.50
43561;DHT22;32305;46.410;17.394;2023-04-24T04:49:51;23.10;42.50
43561;DHT22;32305;46.410;17.394;2023-04-24T04:52:19;23.10;42.50
43561;DHT22;32305;46.410;17.394;2023-04-24T04:54:46;23.10;42.40
43561;DHT22;32305;46.410;17.394;2023-04-24T04:57:13;23.10;42.40
43561;DHT22;32305;46.410;17.394;2023-04-24T04:59:40;23.10;42.30
43561;DHT22;32305;46.410;17.394;2023-04-24T05:02:09;23.20;42.30
43561;DHT22;32305;46.410;17.394;2023-04-24T05:04:36;23.20;42.30
43561;DHT22;32305;46.410;17.394;2023-04-24T05:07:04;23.20;42.30
43561;DHT22;32305;46.410;17.394;2023-04-24T05:09:31;23.20;42.30
43561;DHT22;32305;46.410;17.394;2023-04-24T05:11:58;23.20;42.20
43561;DHT22;32305;46.410;17.394;2023-04-24T05:14:26;23.20;42.20
43561;DHT22;32305;46.410;17.394;2023-04-24T05:16:53;23.30;42.30
43561;DHT22;32305;46.410;17.394;2023-04-24T05:19:20;23.20;42.10
43561;DHT22;32305;46.410;17.394;2023-04-24T05:21:48;23.20;42.20
43561;DHT22;32305;46.410;17.394;2023-04-24T05:24:15;23.30;42.30
43561;DHT22;32305;46.410;17.394;2023-04-24T05:26:42;23.20;42.20
43561;DHT22;32305;46.410;17.394;2023-04-24T05:29:09;23.30;42.20
43561;DHT22;32305;46.410;17.394;2023-04-24T05:31:36;23.30;42.10
43561;DHT22;32305;46.410;17.394;2023-04-24T05:34:04;23.30;42.40
43561;DHT22;32305;46.410;17.394;2023-04-24T05:36:32;23.30;42.40
43561;DHT22;32305;46.410;17.394;2023-04-24T05:38:59;23.30;42.60
43561;DHT22;32305;46.410;17.394;2023-04-24T05:41:26;23.30;42.70
43561;DHT22;32305;46.410;17.394;2023-04-24T05:43:53;23.30;42.80
43561;DHT22;32305;46.410;17.394;2023-04-24T05:46:21;23.40;42.70
43561;DHT22;32305;46.410;17.394;2023-04-24T05:48:49;23.40;42.60
43561;DHT22;32305;46.410;17.394;2023-04-24T05:51:16;23.40;42.70
43561;DHT22;32305;46.410;17.394;2023-04-24T05:53:43;23.50;42.80
43561;DHT22;32305;46.410;17.394;2023-04-24T05:56:11;23.60;43.10
43561;DHT22;32305;46.410;17.394;2023-04-24T05:58:39;23.60;43.40
43561;DHT22;32305;46.410;17.394;2023-04-24T06:01:06;23.60;43.60
43561;DHT22;32305;46.410;17.394;2023-04-24T06:03:33;23.70;43.60
43561;DHT22;32305;46.410;17.394;2023-04-24T06:06:01;23.70;44.00
43561;DHT22;32305;46.410;17.394;2023-04-24T06:08:28;23.80;43.60
43561;DHT22;32305;46.410;17.394;2023-04-24T06:10:56;23.80;43.40
43561;DHT22;32305;46.410;17.394;2023-04-24T06:13:23;23.90;43.50
43561;DHT22;32305;46.410;17.394;2023-04-24T06:15:52;23.90;43.60
43561;DHT22;32305;46.410;17.394;2023-04-24T06:18:22;24.00;43.50
43561;DHT22;32305;46.410;17.394;2023-04-24T06:20:49;24.10;43.50
43561;DHT22;32305;46.410;17.394;2023-04-24T06:23:16;24.10;43.30
43561;DHT22;32305;46.410;17.394;2023-04-24T06:25:43;24.20;43.00
43561;DHT22;32305;46.410;17.394;2023-04-24T06:28:12;24.20;42.80
43561;DHT22;32305;46.410;17.394;2023-04-24T06:30:39;24.30;42.50
43561;DHT22;32305;46.410;17.394;2023-04-24T06:33:06;24.30;42.50
43561;DHT22;32305;46.410;17.394;2023-04-24T06:35:46;24.30;42.20
43561;DHT22;32305;46.410;17.394;2023-04-24T06:38:13;24.40;42.20
43561;DHT22;32305;46.410;17.394;2023-04-24T06:40:40;24.40;41.90
43561;DHT22;32305;46.410;17.394;2023-04-24T06:43:08;24.50;42.00
43561;DHT22;32305;46.410;17.394;2023-04-24T06:45:36;24.50;41.60
43561;DHT22;32305;46.410;17.394;2023-04-24T06:48:03;24.60;40.50
43561;DHT22;32305;46.410;17.394;2023-04-24T06:50:31;24.70;40.70
43561;DHT22;32305;46.410;17.394;2023-04-24T06:52:58;24.70;40.50
43561;DHT22;32305;46.410;17.394;2023-04-24T06:55:26;24.70;40.20
43561;DHT22;32305;46.410;17.394;2023-04-24T06:57:53;24.70;40.30
43561;DHT22;32305;46.410;17.394;2023-04-24T07:00:20;24.70;40.20
43561;DHT22;32305;46.410;17.394;2023-04-24T07:02:48;24.80;40.20
43561;DHT22;32305;46.410;17.394;2023-04-24T07:05:15;24.80;40.20
43561;DHT22;32305;46.410;17.394;2023-04-24T07:07:43;24.80;40.30
43561;DHT22;32305;46.410;17.394;2023-04-24T07:10:12;24.80;40.50
43561;DHT22;32305;46.410;17.394;2023-04-24T07:12:39;24.90;40.50
43561;DHT22;32305;46.410;17.394;2023-04-24T07:15:07;24.90;40.10
43561;DHT22;32305;46.410;17.394;2023-04-24T07:17:35;24.90;40.30
43561;DHT22;32305;46.410;17.394;2023-04-24T07:20:03;24.90;40.20
43561;DHT22;32305;46.410;17.394;2023-04-24T07:22:31;25.00;40.20
43561;DHT22;32305;46.410;17.394;2023-04-24T07:24:58;25.00;40.20
43561;DHT22;32305;46.410;17.394;2023-04-24T07:27:26;25.00;40.10
43561;DHT22;32305;46.410;17.394;2023-04-24T07:29:54;25.10;40.10
43561;DHT22;32305;46.410;17.394;2023-04-24T07:32:21;25.10;40.10
43561;DHT22;32305;46.410;17.394;2023-04-24T07:34:48;25.10;39.90
43561;DHT22;32305;46.410;17.394;2023-04-24T07:37:15;25.20;40.00
43561;DHT22;32305;46.410;17.394;2023-04-24T07:39:42;25.10;39.80
43561;DHT22;32305;46.410;17.394;2023-04-24T07:42:11;25.20;39.80
43561;DHT22;32305;46.410;17.394;2023-04-24T07:44:38;25.20;39.80
43561;DHT22;32305;46.410;17.394;2023-04-24T07:47:05;25.20;39.90
43561;DHT22;32305;46.410;17.394;2023-04-24T07:49:32;25.30;40.00
43561;DHT22;32305;46.410;17.394;2023-04-24T07:52:01;25.30;39.80
43561;DHT22;32305;46.410;17.394;2023-04-24T07:54:29;25.30;39.70
43561;DHT22;32305;46.410;17.394;2023-04-24T07:56:57;25.40;39.70
43561;DHT22;32305;46.410;17.394;2023-04-24T07:59:24;25.40;39.80
43561;DHT22;32305;46.410;17.394;2023-04-24T08:01:51;25.40;39.80
43561;DHT22;32305;46.410;17.394;2023-04-24T08:04:18;25.40;39.80
43561;DHT22;32305;46.410;17.394;2023-04-24T08:06:47;25.40;39.70
43561;DHT22;32305;46.410;17.394;2023-04-24T08:09:15;25.40;39.80
43561;DHT22;32305;46.410;17.394;2023-04-24T08:11:43;25.40;39.60
43561;DHT22;32305;46.410;17.394;2023-04-24T08:14:10;25.40;39.60
43561;DHT22;32305;46.410;17.394;2023-04-24T08:16:39;25.40;39.60
43561;DHT22;32305;46.410;17.394;2023-04-24T08:19:06;25.50;39.60
43561;DHT22;32305;46.410;17.394;2023-04-24T08:21:33;25.50;39.50
43561;DHT22;32305;46.410;17.394;2023-04-24T08:24:01;25.60;39.60
43561;DHT22;32305;46.410;17.394;2023-04-24T08:26:31;25.60;39.50
43561;DHT22;32305;46.410;17.394;2023-04-24T08:28:58;25.60;39.40
43561;DHT22;32305;46.410;17.394;2023-04-24T08:31:26;25.60;39.30
43561;DHT22;32305;46.410;17.394;2023-04-24T08:33:53;25.70;39.30
43561;DHT22;32305;46.410;17.394;2023-04-24T08:36:21;25.70;39.30
43561;DHT22;32305;46.410;17.394;2023-04-24T08:38:52;25.70;39.30
43561;DHT22;32305;46.410;17.394;2023-04-24T08:41:20;25.80;39.30
43561;DHT22;32305;46.410;17.394;2023-04-24T08:43:48;25.80;39.20
43561;DHT22;32305;46.410;17.394;2023-04-24T08:46:15;25.80;39.30
43561;DHT22;32305;46.410;17.394;2023-04-24T08:48:43;25.80;39.50
43561;DHT22;32305;46.410;17.394;2023-04-24T08:51:11;25.80;39.60
43561;DHT22;32305;46.410;17.394;2023-04-24T08:53:40;25.90;39.60
43561;DHT22;32305;46.410;17.394;2023-04-24T08:56:08;25.90;39.50
43561;DHT22;32305;46.410;17.394;2023-04-24T08:58:36;26.00;39.50
43561;DHT22;32305;46.410;17.394;2023-04-24T09:01:04;26.00;39.40
43561;DHT22;32305;46.410;17.394;2023-04-24T09:03:33;26.00;39.50
43561;DHT22;32305;46.410;17.394;2023-04-24T09:06:01;26.00;39.50
43561;DHT22;32305;46.410;17.394;2023-04-24T09:08:29;26.00;39.60
43561;DHT22;32305;46.410;17.394;2023-04-24T09:10:57;26.10;39.70
43561;DHT22;32305;46.410;17.394;2023-04-24T09:13:26;26.10;39.70
43561;DHT22;32305;46.410;17.394;2023-04-24T09:15:54;26.10;39.60
43561;DHT22;32305;46.410;17.394;2023-04-24T09:18:24;26.10;39.50
43561;DHT22;32305;46.410;17.394;2023-04-24T09:21:07;26.10;39.40
43561;DHT22;32305;46.410;17.394;2023-04-24T09:23:35;26.10;39.40
43561;DHT22;32305;46.410;17.394;2023-04-24T09:26:03;26.20;39.50
43561;DHT22;32305;46.410;17.394;2023-04-24T09:28:39;26.20;39.40
43561;DHT22;32305;46.410;17.394;2023-04-24T09:31:13;26.30;39.60
43561;DHT22;32305;46.410;17.394;2023-04-24T09:33:58;26.30;39.70
43561;DHT22;32305;46.410;17.394;2023-04-24T09:36:36;26.30;39.60
43561;DHT22;32305;46.410;17.394;2023-04-24T09:39:06;26.30;39.50
43561;DHT22;32305;46.410;17.394;2023-04-24T09:41:56;26.30;39.50
43561;DHT22;32305;46.410;17.394;2023-04-24T09:44:28;26.40;39.60
43561;DHT22;32305;46.410;17.394;2023-04-24T09:46:58;26.30;39.60
43561;DHT22;32305;46.410;17.394;2023-04-24T09:49:29;26.40;39.60
43561;DHT22;32305;46.410;17.394;2023-04-24T09:52:05;26.40;39.60
43561;DHT22;32305;46.410;17.394;2023-04-24T09:54:33;26.30;39.60
43561;DHT22;32305;46.410;17.394;2023-04-24T09:57:01;26.30;39.50
43561;DHT22;32305;46.410;17.394;2023-04-24T09:59:29;26.30;39.50
43561;DHT22;32305;46.410;17.394;2023-04-24T10:01:59;26.30;39.50
43561;DHT22;32305;46.410;17.394;2023-04-24T10:04:28;26.30;39.70
43561;DHT22;32305;46.410;17.394;2023-04-24T10:06:57;26.30;39.60
43561;DHT22;32305;46.410;17.394;2023-04-24T10:09:26;26.30;39.60
43561;DHT22;32305;46.410;17.394;2023-04-24T10:11:54;26.30;39.60
43561;DHT22;32305;46.410;17.394;2023-04-24T10:14:24;26.30;39.50
43561;DHT22;32305;46.410;17.394;2023-04-24T10:16:54;26.30;39.60
43561;DHT22;32305;46.410;17.394;2023-04-24T10:19:25;26.20;39.60
43561;DHT22;32305;46.410;17.394;2023-04-24T10:21:53;26.20;39.60
43561;DHT22;32305;46.410;17.394;2023-04-24T10:24:22;26.20;39.60
43561;DHT22;32305;46.410;17.394;2023-04-24T10:26:49;26.30;39.60
43561;DHT22;32305;46.410;17.394;2023-04-24T10:29:18;26.30;39.60
43561;DHT22;32305;46.410;17.394;2023-04-24T10:31:45;26.30;39.40
43561;DHT22;32305;46.410;17.394;2023-04-24T10:34:16;26.30;39.30
43561;DHT22;32305;46.410;17.394;2023-04-24T10:36:49;26.40;39.30
43561;DHT22;32305;46.410;17.394;2023-04-24T10:39:18;26.40;39.30
43561;DHT22;32305;46.410;17.394;2023-04-24T10:41:54;26.50;39.30
43561;DHT22;32305;46.410;17.394;2023-04-24T10:44:24;26.50;39.30
43561;DHT22;32305;46.410;17.394;2023-04-24T10:46:55;26.50;39.20
43561;DHT22;32305;46.410;17.394;2023-04-24T10:49:30;26.50;39.10
43561;DHT22;32305;46.410;17.394;2023-04-24T10:52:02;26.50;39.20
43561;DHT22;32305;46.410;17.394;2023-04-24T10:54:44;26.50;39.20
43561;DHT22;32305;46.410;17.394;2023-04-24T10:57:26;26.50;39.10
43561;DHT22;32305;46.410;17.394;2023-04-24T11:00:21;26.50;39.10
43561;DHT22;32305;46.410;17.394;2023-04-24T11:02:48;26.40;39.00
43561;DHT22;32305;46.410;17.394;2023-04-24T11:05:18;26.40;39.20
43561;DHT22;32305;46.410;17.394;2023-04-24T11:08:16;26.40;39.30
43561;DHT22;32305;46.410;17.394;2023-04-24T11:10:57;26.40;39.20
43561;DHT22;32305;46.410;17.394;2023-04-24T11:13:27;26.40;39.30
43561;DHT22;32305;46.410;17.394;2023-04-24T11:16:15;26.40;39.30
43561;DHT22;32305;46.410;17.394;2023-04-24T11:18:52;26.40;39.20
43561;DHT22;32305;46.410;17.394;2023-04-24T11:21:22;26.40;39.30
43561;DHT22;32305;46.410;17.394;2023-04-24T11:23:49;26.40;39.30
43561;DHT22;32305;46.410;17.394;2023-04-24T11:26:24;26.40;39.50
43561;DHT22;32305;46.410;17.394;2023-04-24T11:29:06;26.40;39.60
43561;DHT22;32305;46.410;17.394;2023-04-24T11:31:37;26.40;39.50
43561;DHT22;32305;46.410;17.394;2023-04-24T11:34:12;26.30;39.50
43561;DHT22;32305;46.410;17.394;2023-04-24T11:36:43;26.30;39.70
43561;DHT22;32305;46.410;17.394;2023-04-24T11:39:11;26.30;39.70
43561;DHT22;32305;46.410;17.394;2023-04-24T11:41:38;26.30;39.80
43561;DHT22;32305;46.410;17.394;2023-04-24T11:44:09;26.30;39.80
43561;DHT22;32305;46.410;17.394;2023-04-24T11:46:37;26.30;39.80
43561;DHT22;32305;46.410;17.394;2023-04-24T11:49:07;26.30;39.60
43561;DHT22;32305;46.410;17.394;2023-04-24T11:51:35;26.30;39.50
43561;DHT22;32305;46.410;17.394;2023-04-24T11:54:16;26.30;39.50
43561;DHT22;32305;46.410;17.394;2023-04-24T11:56:46;26.30;39.90
43561;DHT22;32305;46.410;17.394;2023-04-24T11:59:15;26.30;40.70
43561;DHT22;32305;46.410;17.394;2023-04-24T12:01:44;26.40;39.90
43561;DHT22;32305;46.410;17.394;2023-04-24T12:04:12;26.40;39.70
43561;DHT22;32305;46.410;17.394;2023-04-24T12:06:39;26.40;39.60
43561;DHT22;32305;46.410;17.394;2023-04-24T12:09:07;26.40;39.70
43561;DHT22;32305;46.410;17.394;2023-04-24T12:11:53;26.40;39.90
43561;DHT22;32305;46.410;17.394;2023-04-24T12:14:21;26.40;39.70
43561;DHT22;32305;46.410;17.394;2023-04-24T12:16:49;26.40;39.90
43561;DHT22;32305;46.410;17.394;2023-04-24T12:19:23;26.40;39.80
43561;DHT22;32305;46.410;17.394;2023-04-24T12:22:01;26.40;39.70
43561;DHT22;32305;46.410;17.394;2023-04-24T12:24:29;26.40;39.70
43561;DHT22;32305;46.410;17.394;2023-04-24T12:26:57;26.40;39.70
43561;DHT22;32305;46.410;17.394;2023-04-24T12:29:25;26.30;39.50
43561;DHT22;32305;46.410;17.394;2023-04-24T12:31:53;26.30;39.60
43561;DHT22;32305;46.410;17.394;2023-04-24T12:34:22;26.30;39.60
43561;DHT22;32305;46.410;17.394;2023-04-24T12:36:50;26.30;40.40
43561;DHT22;32305;46.410;17.394;2023-04-24T12:39:18;26.30;39.90
43561;DHT22;32305;46.410;17.394;2023-04-24T12:41:56;26.30;40.00
43561;DHT22;32305;46.410;17.394;2023-04-24T12:44:33;26.20;40.00
43561;DHT22;32305;46.410;17.394;2023-04-24T12:47:01;26.20;40.10
43561;DHT22;32305;46.410;17.394;2023-04-24T12:49:30;26.20;40.10
43561;DHT22;32305;46.410;17.394;2023-04-24T12:51:58;26.20;40.10
43561;DHT22;32305;46.410;17.394;2023-04-24T12:54:25;26.20;40.10
43561;DHT22;32305;46.410;17.394;2023-04-24T12:56:52;26.20;40.10
43561;DHT22;32305;46.410;17.394;2023-04-24T12:59:19;26.20;40.20
43561;DHT22;32305;46.410;17.394;2023-04-24T13:01:46;26.20;40.40
43561;DHT22;32305;46.410;17.394;2023-04-24T13:04:13;26.20;40.70
43561;DHT22;32305;46.410;17.394;2023-04-24T13:06:41;26.20;40.80
43561;DHT22;32305;46.410;17.394;2023-04-24T13:09:08;26.20;40.60
43561;DHT22;32305;46.410;17.394;2023-04-24T13:11:36;26.20;40.70
43561;DHT22;32305;46.410;17.394;2023-04-24T13:14:03;26.10;40.80
43561;DHT22;32305;46.410;17.394;2023-04-24T13:16:30;26.10;41.00
43561;DHT22;32305;46.410;17.394;2023-04-24T13:18:57;26.10;41.10
43561;DHT22;32305;46.410;17.394;2023-04-24T13:21:25;26.10;41.00
43561;DHT22;32305;46.410;17.394;2023-04-24T13:23:54;26.10;41.00
43561;DHT22;32305;46.410;17.394;2023-04-24T13:26:21;26.00;41.00
43561;DHT22;32305;46.410;17.394;2023-04-24T13:28:49;26.10;41.10
43561;DHT22;32305;46.410;17.394;2023-04-24T13:31:18;26.10;41.20
43561;DHT22;32305;46.410;17.394;2023-04-24T13:33:45;26.00;41.10
43561;DHT22;32305;46.410;17.394;2023-04-24T13:36:12;26.00;41.20
43561;DHT22;32305;46.410;17.394;2023-04-24T13:38:39;26.00;41.50
43561;DHT22;32305;46.410;17.394;2023-04-24T13:41:07;26.00;41.60
43561;DHT22;32305;46.410;17.394;2023-04-24T13:43:34;25.90;41.60
43561;DHT22;32305;46.410;17.394;2023-04-24T13:46:02;25.90;41.80
43561;DHT22;32305;46.410;17.394;2023-04-24T13:48:30;25.90;42.10
43561;DHT22;32305;46.410;17.394;2023-04-24T13:50:57;25.90;42.30
43561;DHT22;32305;46.410;17.394;2023-04-24T13:53:24;26.00;42.50
43561;DHT22;32305;46.410;17.394;2023-04-24T13:55:51;25.90;42.20
43561;DHT22;32305;46.410;17.394;2023-04-24T13:58:18;25.90;42.30
43561;DHT22;32305;46.410;17.394;2023-04-24T14:00:46;26.00;42.50
43561;DHT22;32305;46.410;17.394;2023-04-24T14:03:13;25.90;42.40
43561;DHT22;32305;46.410;17.394;2023-04-24T14:05:40;25.90;42.40
43561;DHT22;32305;46.410;17.394;2023-04-24T14:08:07;25.90;42.50
43561;DHT22;32305;46.410;17.394;2023-04-24T14:10:35;25.80;42.40
43561;DHT22;32305;46.410;17.394;2023-04-24T14:13:02;25.90;42.40
43561;DHT22;32305;46.410;17.394;2023-04-24T14:15:29;25.90;42.40
43561;DHT22;32305;46.410;17.394;2023-04-24T14:17:56;25.90;42.30
43561;DHT22;32305;46.410;17.394;2023-04-24T14:20:23;25.90;42.20
43561;DHT22;32305;46.410;17.394;2023-04-24T14:22:51;26.00;42.10
43561;DHT22;32305;46.410;17.394;2023-04-24T14:25:18;26.10;42.10
43561;DHT22;32305;46.410;17.394;2023-04-24T14:27:45;26.10;42.10
43561;DHT22;32305;46.410;17.394;2023-04-24T14:30:13;26.10;42.10
43561;DHT22;32305;46.410;17.394;2023-04-24T14:32:42;26.10;42.10
43561;DHT22;32305;46.410;17.394;2023-04-24T14:35:09;26.20;42.30
43561;DHT22;32305;46.410;17.394;2023-04-24T14:37:37;26.10;42.40
43561;DHT22;32305;46.410;17.394;2023-04-24T14:40:04;26.20;42.50
43561;DHT22;32305;46.410;17.394;2023-04-24T14:42:37;26.20;42.40
43561;DHT22;32305;46.410;17.394;2023-04-24T14:45:04;26.10;42.40
43561;DHT22;32305;46.410;17.394;2023-04-24T14:47:31;26.10;42.50
43561;DHT22;32305;46.410;17.394;2023-04-24T14:49:59;26.00;42.40
43561;DHT22;32305;46.410;17.394;2023-04-24T14:52:26;26.10;42.50
43561;DHT22;32305;46.410;17.394;2023-04-24T14:54:53;26.00;42.60
43561;DHT22;32305;46.410;17.394;2023-04-24T14:57:22;26.00;42.60
43561;DHT22;32305;46.410;17.394;2023-04-24T14:59:49;25.90;42.70
43561;DHT22;32305;46.410;17.394;2023-04-24T15:02:16;25.90;42.80
43561;DHT22;32305;46.410;17.394;2023-04-24T15:04:46;25.90;43.10
43561;DHT22;32305;46.410;17.394;2023-04-24T15:07:14;25.80;43.10
43561;DHT22;32305;46.410;17.394;2023-04-24T15:09:41;25.80;43.40
43561;DHT22;32305;46.410;17.394;2023-04-24T15:12:09;25.80;43.80
43561;DHT22;32305;46.410;17.394;2023-04-24T15:14:39;25.70;44.20
43561;DHT22;32305;46.410;17.394;2023-04-24T15:17:06;25.70;44.40
43561;DHT22;32305;46.410;17.394;2023-04-24T15:19:33;25.70;44.70
43561;DHT22;32305;46.410;17.394;2023-04-24T15:22:01;25.70;45.00
43561;DHT22;32305;46.410;17.394;2023-04-24T15:24:28;25.70;45.40